createdAt,value
2019-06-08T00:00:15.245Z,19.50
2019-06-08T00:02:44.540Z,19.80
2019-06-08T00:05:14.633Z,19.90
2019-06-08T00:07:43.546Z,20.10
2019-06-08T00:10:12.718Z,20.30
2019-06-08T00:12:41.941Z,20.30
2019-06-08T00:15:11.084Z,20.10
2019-06-08T00:17:39.894Z,20.10
2019-06-08T00:20:08.660Z,20.00
2019-06-08T00:22:37.563Z,20.00
2019-06-08T00:25:06.690Z,20.00
2019-06-08T00:27:35.489Z,20.00
2019-06-08T00:30:06.435Z,20.20
2019-06-08T00:32:35.181Z,20.30
2019-06-08T00:35:05.031Z,20.30
2019-06-08T00:37:34.607Z,20.20
2019-06-08T00:40:05.030Z,20.20
2019-06-08T00:42:34.355Z,20.10
2019-06-08T00:45:04.000Z,20.10
2019-06-08T00:47:46.932Z,20.10
2019-06-08T00:50:06.067Z,20.10
2019-06-08T00:52:35.898Z,20.10
2019-06-08T00:55:06.411Z,20.10
2019-06-08T00:57:35.474Z,20.10
2019-06-08T01:00:11.029Z,20.30
2019-06-08T01:02:37.159Z,20.40
2019-06-08T01:05:06.706Z,20.30
2019-06-08T01:07:36.361Z,20.30
2019-06-08T01:10:09.010Z,20.30
2019-06-08T01:12:38.463Z,20.30
2019-06-08T01:15:08.716Z,20.20
2019-06-08T01:17:38.226Z,20.30
2019-06-08T01:20:07.703Z,20.30
2019-06-08T01:22:37.338Z,20.30
2019-06-08T01:25:06.873Z,20.30
2019-06-08T01:27:35.915Z,20.40
2019-06-08T01:30:06.923Z,20.30
2019-06-08T01:32:35.958Z,20.40
2019-06-08T01:35:05.490Z,20.30
2019-06-08T01:37:34.766Z,20.30
2019-06-08T01:40:09.449Z,20.30
2019-06-08T01:42:38.772Z,20.30
2019-06-08T01:45:08.401Z,20.40
